Time;durP1;ratioP1;P1;durP2;ratioP2;P2;SDS_P1;SDS_P2;PMS_P1;PMS_P2;Temp;Humidity;BMP_temperature;BMP_pressure;BME280_temperature;BME280_humidity;BME280_pressure;Samples;Min_cycle;Max_cycle;Signal;HPM_P1;HPM_P2
2022/10/15 00:01:29;;;;;;;16.08;11.00;;;;;;;22.05;54.75;101106.97;5017964;28;20378;-78
2022/10/15 00:03:59;;;;;;;13.05;11.18;;;;;;;22.04;54.84;101105.28;5016448;28;20398;-78
2022/10/15 00:06:31;;;;;;;12.80;10.60;;;;;;;22.05;54.65;101108.81;5017466;28;20060;-78
2022/10/15 00:08:58;;;;;;;12.60;11.40;;;;;;;22.03;54.83;101108.94;5018811;28;20038;-78
2022/10/15 00:11:27;;;;;;;12.15;10.95;;;;;;;22.04;54.75;101115.19;5016319;28;20504;-77
2022/10/15 00:13:57;;;;;;;12.02;10.88;;;;;;;22.04;54.70;101113.38;5017104;28;20053;-78
2022/10/15 00:16:26;;;;;;;11.07;10.00;;;;;;;22.04;54.77;101113.38;5017634;28;20046;-77
2022/10/15 00:18:55;;;;;;;14.18;10.75;;;;;;;22.03;54.79;101105.41;5016621;28;20054;-77
2022/10/15 00:21:22;;;;;;;14.07;11.63;;;;;;;22.04;54.71;101099.00;5015680;28;20053;-77
2022/10/15 00:23:50;;;;;;;13.73;11.52;;;;;;;22.04;54.68;101089.09;5016684;28;20054;-77
2022/10/15 00:26:20;;;;;;;12.25;10.95;;;;;;;22.03;54.63;101087.38;5016373;28;20034;-76
2022/10/15 00:28:50;;;;;;;10.93;9.82;;;;;;;22.04;54.76;101085.53;5016941;28;20049;-77
2022/10/15 00:31:25;;;;;;;12.63;10.98;;;;;;;22.03;54.73;101087.38;5015265;28;20050;-76
2022/10/15 00:33:54;;;;;;;13.93;11.93;;;;;;;22.04;54.79;101090.94;5014784;28;20422;-77
2022/10/15 00:36:33;;;;;;;11.23;9.93;;;;;;;22.02;54.73;101085.69;5015351;28;20437;-78
2022/10/15 00:39:03;;;;;;;15.35;11.55;;;;;;;22.03;54.69;101092.78;5022751;28;20413;-77
2022/10/15 00:41:42;;;;;;;12.73;11.43;;;;;;;22.03;54.80;101086.53;5016976;28;20041;-77
2022/10/15 00:44:28;;;;;;;12.15;10.95;;;;;;;22.03;54.70;101086.53;5016028;28;20057;-78
2022/10/15 00:47:26;;;;;;;11.45;10.32;;;;;;;22.02;54.74;101084.84;5014901;28;20490;-77
2022/10/15 00:50:12;;;;;;;13.43;11.77;;;;;;;22.01;54.76;101073.22;5015413;28;20049;-78
2022/10/15 00:53:00;;;;;;;12.43;11.13;;;;;;;22.01;54.72;101081.28;5014841;28;20409;-77
2022/10/15 00:55:30;;;;;;;13.13;11.75;;;;;;;22.01;54.74;101081.28;5016793;28;20060;-78
2022/10/15 00:58:04;;;;;;;11.73;10.48;;;;;;;22.02;54.62;101083.00;5014434;28;20054;-78
2022/10/15 01:00:32;;;;;;;11.82;10.60;;;;;;;22.01;54.68;101086.69;5015090;28;20065;-78
2022/10/15 01:03:00;;;;;;;12.15;10.85;;;;;;;22.02;54.72;101082.16;5014809;28;20065;-78
2022/10/15 01:05:29;;;;;;;12.23;11.05;;;;;;;22.02;54.61;101077.59;5013835;28;20046;-78
2022/10/15 01:07:56;;;;;;;13.57;11.18;;;;;;;22.02;54.61;101063.28;5016785;28;20401;-78
2022/10/15 01:10:31;;;;;;;12.43;11.13;;;;;;;22.02;54.64;101065.97;5014913;28;20125;-78
2022/10/15 01:13:36;;;;;;;12.23;11.02;;;;;;;22.00;54.74;101063.44;5016332;28;20062;-77
2022/10/15 01:16:23;;;;;;;11.88;10.68;;;;;;;22.01;54.68;101064.28;5013810;28;20049;-77
2022/10/15 01:18:51;;;;;;;12.68;10.30;;;;;;;22.00;54.57;101071.50;5016357;28;20049;-77
2022/10/15 01:21:34;;;;;;;11.55;10.38;;;;;;;22.01;54.68;101077.75;5014614;28;20061;-77
2022/10/15 01:24:41;;;;;;;14.30;10.80;;;;;;;21.99;54.61;101069.78;5022313;28;20058;-77
2022/10/15 01:27:16;;;;;;;11.60;10.40;;;;;;;21.99;54.59;101080.56;5033288;28;20405;-77
2022/10/15 01:30:04;;;;;;;12.65;10.52;;;;;;;22.01;54.76;101077.75;5035701;28;20053;-76
2022/10/15 01:32:37;;;;;;;11.32;10.13;;;;;;;21.99;54.67;101067.09;5036059;28;20049;-77
2022/10/15 01:35:10;;;;;;;11.13;9.95;;;;;;;22.00;54.78;101059.84;5035784;28;20048;-77
2022/10/15 01:37:51;;;;;;;12.15;10.75;;;;;;;21.99;54.83;101067.09;5033296;28;20050;-77
2022/10/15 01:40:44;;;;;;;12.07;10.23;;;;;;;21.99;54.80;101064.41;5016806;28;20056;-77
2022/10/15 01:43:19;;;;;;;11.98;10.73;;;;;;;22.00;54.67;101070.63;5015547;28;20578;-77
2022/10/15 01:46:15;;;;;;;12.15;10.98;;;;;;;22.00;54.77;101068.81;5014100;28;20054;-77
2022/10/15 01:49:04;;;;;;;13.80;11.20;;;;;;;21.99;54.83;101053.63;5014832;28;20046;-76
2022/10/15 01:51:35;;;;;;;13.32;10.77;;;;;;;21.99;54.75;101050.91;5014888;28;20045;-77
2022/10/15 01:54:07;;;;;;;12.63;10.93;;;;;;;21.98;54.82;101046.53;5013879;28;20456;-78
2022/10/15 01:56:36;;;;;;;11.65;10.45;;;;;;;21.98;54.81;101039.28;5013561;28;20060;-77
2022/10/15 01:59:04;;;;;;;11.60;10.40;;;;;;;21.98;54.88;101033.06;5013180;28;20060;-78
2022/10/15 02:01:32;;;;;;;13.07;10.98;;;;;;;21.98;54.83;101033.06;5013440;28;20057;-78
2022/10/15 02:03:59;;;;;;;11.75;10.55;;;;;;;21.98;54.82;101030.34;5014860;28;20046;-79
2022/10/15 02:06:41;;;;;;;11.65;10.45;;;;;;;21.98;54.83;101022.28;5013318;28;20406;-78
2022/10/15 02:09:22;;;;;;;11.60;10.50;;;;;;;21.98;54.78;101014.19;5015829;28;20470;-78
2022/10/15 02:12:14;;;;;;;12.10;10.48;;;;;;;21.99;54.70;101018.56;5014087;28;20053;-78
2022/10/15 02:15:00;;;;;;;11.32;10.20;;;;;;;21.97;54.69;101025.97;5013685;28;20054;-78
2022/10/15 02:17:42;;;;;;;11.45;10.20;;;;;;;21.98;54.60;101024.97;5014473;28;20053;-77
2022/10/15 02:20:22;;;;;;;10.98;9.88;;;;;;;21.97;54.72;101020.56;5015041;28;20397;-77
2022/10/15 02:22:58;;;;;;;12.75;10.52;;;;;;;21.96;54.59;101029.66;5012830;28;20065;-77
2022/10/15 02:25:27;;;;;;;13.55;10.48;;;;;;;21.97;54.81;101031.38;5014865;28;20414;-77
2022/10/15 02:27:56;;;;;;;14.73;10.63;;;;;;;21.96;54.74;101026.97;5012799;28;20060;-78
2022/10/15 02:30:29;;;;;;;11.88;10.45;;;;;;;21.97;54.72;101031.38;5015248;28;20513;-78
2022/10/15 02:32:58;;;;;;;11.23;10.13;;;;;;;21.96;54.62;101021.59;5013169;28;20050;-78
2022/10/15 02:35:27;;;;;;;14.45;10.23;;;;;;;21.97;54.77;101017.88;5012975;28;20050;-78
2022/10/15 02:37:58;;;;;;;11.32;10.13;;;;;;;21.95;54.72;101018.00;5013300;28;20065;-78
2022/10/15 02:40:28;;;;;;;11.00;9.93;;;;;;;21.95;54.67;101014.47;5015128;28;20061;-78
2022/10/15 02:42:56;;;;;;;10.82;9.60;;;;;;;21.97;54.69;101015.19;5013321;28;20417;-78
2022/10/15 02:45:23;;;;;;;10.45;9.35;;;;;;;21.96;54.64;101005.41;5013158;28;20050;-78
2022/10/15 02:47:51;;;;;;;11.85;10.25;;;;;;;21.96;54.63;101010.78;5013725;28;20057;-78
2022/10/15 02:50:18;;;;;;;10.35;9.35;;;;;;;21.95;54.73;101014.47;5013019;28;20050;-78
2022/10/15 02:52:45;;;;;;;11.25;10.10;;;;;;;21.95;54.71;101020.69;5012964;28;20062;-77
2022/10/15 02:55:13;;;;;;;10.48;9.48;;;;;;;21.96;54.60;101014.34;5013403;28;20417;-77
2022/10/15 02:57:41;;;;;;;12.68;10.77;;;;;;;21.95;54.68;101011.78;5012493;28;20053;-77
2022/10/15 03:00:09;;;;;;;11.95;9.88;;;;;;;21.95;54.69;101009.91;5012795;28;20050;-78
2022/10/15 03:02:38;;;;;;;11.32;10.13;;;;;;;21.95;54.83;101009.06;5012860;28;20509;-77
2022/10/15 03:05:06;;;;;;;12.02;10.82;;;;;;;21.95;54.75;101009.91;5009917;28;20051;-76
2022/10/15 03:07:34;;;;;;;12.30;9.85;;;;;;;21.95;54.79;101009.06;5011884;28;20489;-76
2022/10/15 03:10:01;;;;;;;10.63;9.57;;;;;;;21.96;54.72;101016.19;5016703;28;20516;-77
2022/10/15 03:12:28;;;;;;;10.32;9.32;;;;;;;21.96;54.84;101016.19;5018873;28;20046;-78
2022/10/15 03:14:56;;;;;;;13.90;9.88;;;;;;;21.96;54.92;101010.78;5016791;28;20050;-79
2022/10/15 03:17:24;;;;;;;11.68;10.48;;;;;;;21.97;54.91;101009.78;5017288;28;20057;-78
2022/10/15 03:19:52;;;;;;;11.98;9.82;;;;;;;21.95;54.92;101003.69;5016665;28;20046;-77
2022/10/15 03:22:21;;;;;;;24.98;9.80;;;;;;;21.95;54.86;101003.69;5016907;28;20050;-77
2022/10/15 03:24:52;;;;;;;16.92;10.95;;;;;;;21.96;54.84;101005.41;5023962;28;20053;-77
2022/10/15 03:27:24;;;;;;;12.98;10.57;;;;;;;21.95;54.83;101007.22;5036086;28;20524;-76
2022/10/15 03:29:53;;;;;;;12.20;10.43;;;;;;;21.95;54.74;101006.38;5036131;28;20409;-78
2022/10/15 03:32:22;;;;;;;11.45;10.25;;;;;;;21.95;54.75;101009.06;5035765;28;20060;-78
2022/10/15 03:34:50;;;;;;;11.55;10.40;;;;;;;21.93;54.71;101009.22;5036648;28;20046;-77
2022/10/15 03:37:19;;;;;;;13.25;11.15;;;;;;;21.94;54.75;101002.00;5037960;28;20046;-77
2022/10/15 03:39:46;;;;;;;13.25;10.07;;;;;;;21.95;54.78;101011.78;5025359;28;20045;-77
2022/10/15 03:42:17;;;;;;;10.63;9.52;;;;;;;21.93;54.68;101017.31;5016226;28;20049;-78
2022/10/15 03:44:45;;;;;;;12.23;9.80;;;;;;;21.93;54.83;101014.63;5000580;28;20050;-78
2022/10/15 03:47:16;;;;;;;12.65;10.13;;;;;;;21.94;54.74;101015.47;5015957;28;20053;-77
2022/10/15 03:49:48;;;;;;;10.73;9.57;;;;;;;21.93;54.68;101019.16;5018013;28;20497;-77
2022/10/15 03:52:16;;;;;;;10.80;9.70;;;;;;;21.93;54.68;101024.56;5015918;28;20057;-78
2022/10/15 03:54:45;;;;;;;11.57;10.48;;;;;;;21.94;54.73;101029.78;5016281;28;20056;-78
2022/10/15 03:57:15;;;;;;;11.45;10.32;;;;;;;21.93;54.72;101017.31;5016682;28;20057;-78
2022/10/15 03:59:51;;;;;;;12.40;10.93;;;;;;;21.93;54.71;101020.00;5015881;28;20053;-77
2022/10/15 04:02:21;;;;;;;12.52;9.82;;;;;;;21.93;54.77;101024.56;5016210;28;20421;-77
2022/10/15 04:04:53;;;;;;;11.45;10.35;;;;;;;21.93;54.76;101011.94;5015824;28;20049;-78
2022/10/15 04:07:22;;;;;;;13.25;11.85;;;;;;;21.92;54.73;101009.38;5015067;28;20050;-77
2022/10/15 04:09:49;;;;;;;12.38;10.60;;;;;;;21.91;54.66;101002.28;5015715;28;20493;-77
2022/10/15 04:12:32;;;;;;;11.67;10.47;;;;;;;21.92;54.74;100995.91;5015542;28;20049;-77
2022/10/15 04:14:59;;;;;;;13.63;11.07;;;;;;;21.91;54.63;100989.63;5015357;28;20061;-77
2022/10/15 04:17:27;;;;;;;11.23;10.13;;;;;;;21.90;54.74;100990.66;5016544;28;20054;-77
2022/10/15 04:19:54;;;;;;;11.95;10.65;;;;;;;21.92;54.65;100993.22;5014233;28;20516;-77
2022/10/15 04:22:22;;;;;;;10.80;9.70;;;;;;;21.92;54.59;100990.53;4999159;28;20494;-77
2022/10/15 04:24:55;;;;;;;13.27;10.05;;;;;;;21.91;54.58;100988.78;5015638;28;20050;-77
2022/10/15 04:27:27;;;;;;;11.43;10.25;;;;;;;21.90;54.65;100987.94;5015450;28;20054;-78
2022/10/15 04:30:05;;;;;;;12.63;10.32;;;;;;;21.92;54.56;100998.59;5015406;28;20065;-78
2022/10/15 04:32:32;;;;;;;11.05;9.98;;;;;;;21.91;54.77;101003.13;5015879;28;20065;-78
2022/10/15 04:35:00;;;;;;;9.35;8.52;;;;;;;21.90;54.77;101001.44;5015593;28;20065;-78
2022/10/15 04:37:46;;;;;;;9.90;9.00;;;;;;;21.90;54.74;100997.88;5015388;28;20445;-78
2022/10/15 04:40:15;;;;;;;11.75;9.60;;;;;;;21.91;54.74;100996.88;5022946;28;20405;-77
2022/10/15 04:42:42;;;;;;;10.57;9.48;;;;;;;21.91;54.63;101002.28;5034735;28;20061;-77
2022/10/15 04:45:09;;;;;;;10.38;9.38;;;;;;;21.91;54.58;101002.28;5034944;28;20409;-77
2022/10/15 04:47:37;;;;;;;11.60;10.40;;;;;;;21.91;54.58;101007.66;5034814;28;20046;-77
2022/10/15 04:50:08;;;;;;;10.57;9.57;;;;;;;21.90;54.59;101019.44;5034948;28;20046;-78
2022/10/15 04:52:54;;;;;;;13.52;10.30;;;;;;;21.89;54.63;101033.94;5037699;28;20060;-78
2022/10/15 04:55:23;;;;;;;11.18;10.00;;;;;;;21.90;54.62;101039.16;5035442;28;20531;-79
2022/10/15 04:57:55;;;;;;;10.35;9.35;;;;;;;21.89;54.56;101032.06;5034405;28;20056;-77
2022/10/15 05:00:28;;;;;;;11.10;9.98;;;;;;;21.90;54.67;101033.78;5036586;28;20048;-77
2022/10/15 05:03:07;;;;;;;11.38;9.68;;;;;;;21.90;54.63;101038.31;5043936;28;20049;-77
2022/10/15 05:05:45;;;;;;;10.50;9.38;;;;;;;21.90;54.56;101032.91;5035205;28;20054;-78
2022/10/15 05:08:12;;;;;;;13.27;10.52;;;;;;;21.89;54.59;101029.38;5020767;28;20393;-78
2022/10/15 05:11:01;;;;;;;11.50;10.40;;;;;;;21.89;54.46;101028.53;4996951;28;20512;-78
2022/10/15 05:13:29;;;;;;;14.02;10.35;;;;;;;21.89;54.57;101028.53;4979449;28;20050;-78
2022/10/15 05:16:08;;;;;;;11.50;10.43;;;;;;;21.88;54.46;101037.63;4994667;28;20050;-78
2022/10/15 05:18:36;;;;;;;11.18;10.05;;;;;;;21.88;54.42;101035.78;4994591;28;20055;-78
2022/10/15 05:21:04;;;;;;;12.52;10.10;;;;;;;21.88;54.60;101034.94;4994946;28;20047;-78
2022/10/15 05:23:32;;;;;;;11.85;10.60;;;;;;;21.88;54.33;101030.38;4994600;28;20058;-77
2022/10/15 05:26:22;;;;;;;11.90;10.70;;;;;;;21.87;54.36;101025.97;4970455;28;20062;-78
2022/10/15 05:28:50;;;;;;;12.95;9.82;;;;;;;21.87;54.47;101031.34;4958101;28;20194;-78
2022/10/15 05:31:28;;;;;;;11.05;9.85;;;;;;;21.87;54.30;101027.81;4957415;28;20055;-77
2022/10/15 05:34:07;;;;;;;11.32;9.88;;;;;;;21.86;54.36;101024.28;4958932;28;20458;-78
2022/10/15 05:36:42;;;;;;;11.18;9.48;;;;;;;21.87;54.27;101027.81;4959029;28;20061;-77
2022/10/15 05:39:11;;;;;;;11.10;9.90;;;;;;;21.86;54.22;101015.34;4957506;28;20069;-77
2022/10/15 05:41:43;;;;;;;;;;;;;;;21.86;54.34;101026.97;4975443;28;20069;-77
2022/10/15 05:44:10;;;;;;;11.70;10.43;;;;;;;21.85;54.35;101033.34;4975115;28;19922;-77
2022/10/15 05:46:38;;;;;;;11.85;10.07;;;;;;;21.86;54.23;101044.97;4974819;28;20046;-77
2022/10/15 05:49:05;;;;;;;11.43;9.20;;;;;;;21.85;54.20;101052.22;4958642;28;20054;-77
2022/10/15 05:51:44;;;;;;;10.63;9.52;;;;;;;21.87;54.27;101057.47;4974797;28;20061;-78
2022/10/15 05:54:18;;;;;;;10.40;9.25;;;;;;;21.86;54.30;101070.09;4958330;28;20058;-77
2022/10/15 05:56:46;;;;;;;11.18;9.88;;;;;;;21.85;54.21;101060.31;4974343;28;20507;-77
2022/10/15 05:59:13;;;;;;;10.82;9.73;;;;;;;21.84;54.32;101066.69;4975252;28;20451;-77
2022/10/15 06:01:40;;;;;;;11.85;9.88;;;;;;;21.84;54.24;101069.41;4975590;28;20051;-78
2022/10/15 06:04:08;;;;;;;10.63;9.52;;;;;;;21.84;54.13;101072.09;4999439;28;20046;-78
2022/10/15 06:06:36;;;;;;;10.88;9.40;;;;;;;21.84;54.17;101058.63;4995831;28;20042;-78
2022/10/15 06:09:03;;;;;;;12.65;9.88;;;;;;;21.85;54.20;101062.16;5007254;28;20045;-77
2022/10/15 06:11:30;;;;;;;9.73;8.82;;;;;;;21.85;54.22;101054.06;5015083;28;20516;-77
2022/10/15 06:13:57;;;;;;;13.00;9.77;;;;;;;21.84;54.10;101055.06;5013980;28;20052;-78
2022/10/15 06:16:25;;;;;;;10.80;9.70;;;;;;;21.83;54.14;101047.97;5015797;28;20513;-78
2022/10/15 06:18:52;;;;;;;12.02;9.65;;;;;;;21.84;54.13;101057.78;5015616;28;20050;-77
2022/10/15 06:21:20;;;;;;;12.38;10.52;;;;;;;21.84;54.22;101055.06;5015615;28;20391;-77
2022/10/15 06:23:47;;;;;;;11.10;10.00;;;;;;;21.82;54.11;101067.81;5015689;28;20052;-77
2022/10/15 06:26:15;;;;;;;11.15;10.00;;;;;;;21.83;54.15;101078.44;5013510;28;20050;-77
2022/10/15 06:28:44;;;;;;;11.68;10.48;;;;;;;21.83;54.14;101070.38;5015300;28;20053;-77
2022/10/15 06:31:11;;;;;;;11.60;10.38;;;;;;;21.82;54.14;101063.28;5013546;28;20049;-77
2022/10/15 06:33:39;;;;;;;10.80;9.50;;;;;;;21.83;54.13;101070.38;5014657;28;20373;-77
2022/10/15 06:36:10;;;;;;;11.80;10.63;;;;;;;21.83;54.11;101069.53;5014675;28;20048;-77
2022/10/15 06:38:38;;;;;;;11.13;9.82;;;;;;;21.84;54.13;101074.78;5012350;28;20057;-77
2022/10/15 06:41:06;;;;;;;12.27;11.07;;;;;;;21.83;54.06;101064.13;5030368;28;20048;-76
2022/10/15 06:43:34;;;;;;;12.23;9.55;;;;;;;21.83;54.07;101064.13;5034523;28;20057;-76
2022/10/15 06:46:04;;;;;;;13.20;9.98;;;;;;;21.84;54.12;101071.25;5034489;28;20053;-78
2022/10/15 06:48:33;;;;;;;11.65;10.15;;;;;;;21.83;54.16;101081.16;5034761;28;20049;-77
2022/10/15 06:51:01;;;;;;;11.60;10.35;;;;;;;21.84;54.19;101088.25;5034497;28;20377;-77
2022/10/15 06:53:29;;;;;;;11.25;10.13;;;;;;;21.83;54.13;101077.59;5033677;28;20052;-77
2022/10/15 06:55:58;;;;;;;10.75;9.65;;;;;;;21.85;54.18;101086.41;5034635;28;20045;-77
2022/10/15 06:58:26;;;;;;;12.35;10.50;;;;;;;21.83;54.15;101089.22;5033900;28;20045;-77
2022/10/15 07:01:02;;;;;;;11.85;10.25;;;;;;;21.83;54.21;101080.31;5034207;28;20049;-77
2022/10/15 07:03:30;;;;;;;12.23;10.77;;;;;;;21.83;54.24;101081.16;5032940;28;20064;-77
2022/10/15 07:06:05;;;;;;;11.65;9.90;;;;;;;21.84;54.22;101071.25;5034283;28;20049;-76
2022/10/15 07:08:33;;;;;;;11.63;10.20;;;;;;;21.83;54.23;101083.00;5034413;28;20049;-76
2022/10/15 07:11:02;;;;;;;13.52;10.35;;;;;;;21.83;54.16;101074.91;5011486;28;20037;-77
2022/10/15 07:13:30;;;;;;;12.93;11.20;;;;;;;21.82;54.26;101084.84;5014638;28;20046;-79
2022/10/15 07:16:10;;;;;;;11.23;9.90;;;;;;;21.85;54.23;101097.19;5014407;28;20061;-77
2022/10/15 07:18:38;;;;;;;10.52;9.43;;;;;;;21.84;54.19;101100.91;5013085;28;20061;-75
2022/10/15 07:21:07;;;;;;;12.63;11.30;;;;;;;21.84;54.30;101101.75;5014638;28;20050;-76
2022/10/15 07:23:38;;;;;;;12.85;10.25;;;;;;;21.83;54.25;101094.63;5014507;28;20069;-76
2022/10/15 07:26:05;;;;;;;12.88;10.43;;;;;;;21.84;54.23;101103.59;5025709;28;20485;-76
2022/10/15 07:28:32;;;;;;;11.23;10.02;;;;;;;21.83;54.41;101110.78;5034271;28;20045;-77
2022/10/15 07:31:02;;;;;;;11.15;10.05;;;;;;;21.83;54.33;101112.66;5033708;28;20053;-77
2022/10/15 07:33:32;;;;;;;13.77;10.77;;;;;;;21.83;54.42;101113.50;5034013;28;20045;-76
2022/10/15 07:36:08;;;;;;;16.77;15.05;;;;;;;21.83;53.63;101115.34;5033934;28;20513;-76
2022/10/15 07:38:35;;;;;;;20.02;17.00;;;;;;;21.82;53.36;101108.25;5032082;28;20064;-75
2022/10/15 07:41:03;;;;;;;21.48;16.75;;;;;;;21.80;53.16;101112.94;5015023;28;20046;-81
2022/10/15 07:43:32;;;;;;;20.70;17.42;;;;;;;21.79;53.04;101111.22;5014347;28;20490;-76
2022/10/15 07:46:00;;;;;;;20.60;18.40;;;;;;;21.76;52.95;101112.38;5013890;28;20046;-76
2022/10/15 07:48:28;;;;;;;20.30;17.48;;;;;;;21.75;53.11;101115.19;5014493;28;20049;-75
2022/10/15 07:51:00;;;;;;;19.95;17.80;;;;;;;21.72;53.19;101114.50;5014456;28;20406;-85
2022/10/15 07:53:27;;;;;;;20.33;17.65;;;;;;;21.73;53.33;101116.19;5015004;28;20050;-84
2022/10/15 07:56:06;;;;;;;22.10;17.05;;;;;;;21.71;53.26;101123.59;5018398;28;20382;-84
2022/10/15 07:58:34;;;;;;;23.13;18.13;;;;;;;21.71;53.17;101120.88;5017989;28;20061;-77
2022/10/15 08:01:05;;;;;;;23.80;18.35;;;;;;;21.71;53.27;101118.19;5017674;28;20050;-76
2022/10/15 08:03:34;;;;;;;22.65;17.50;;;;;;;21.71;53.44;101109.22;5017578;28;20054;-76
2022/10/15 08:06:04;;;;;;;18.98;16.05;;;;;;;21.72;53.53;101116.34;5016688;28;20061;-76
2022/10/15 08:08:33;;;;;;;17.33;14.90;;;;;;;21.72;53.61;101105.56;5016694;28;20053;-76
2022/10/15 08:11:12;;;;;;;17.13;12.95;;;;;;;21.73;53.76;101110.81;5016474;28;20038;-76
2022/10/15 08:13:41;;;;;;;14.25;12.32;;;;;;;21.76;54.00;101112.38;5017495;28;20050;-76
2022/10/15 08:16:10;;;;;;;17.60;13.75;;;;;;;21.76;53.83;101103.44;5017362;28;20053;-77
2022/10/15 08:18:38;;;;;;;19.23;13.63;;;;;;;21.78;53.87;101104.13;5017060;28;20045;-78
2022/10/15 08:21:07;;;;;;;15.30;12.73;;;;;;;21.79;54.08;101105.84;5016516;28;20379;-77
2022/10/15 08:23:35;;;;;;;13.45;12.00;;;;;;;21.80;53.94;101112.94;5017199;28;20046;-77
2022/10/15 08:26:03;;;;;;;15.90;12.10;;;;;;;21.82;54.28;101116.34;5017002;28;20050;-77
2022/10/15 08:28:32;;;;;;;13.98;12.52;;;;;;;21.83;54.21;101112.66;5017272;28;20053;-77
2022/10/15 08:31:02;;;;;;;14.30;10.05;;;;;;;21.84;54.33;101114.38;5015392;28;20054;-84
2022/10/15 08:33:34;;;;;;;17.90;13.07;;;;;;;21.84;54.23;101120.59;5017095;28;20068;-76
2022/10/15 08:36:04;;;;;;;13.98;12.52;;;;;;;21.85;54.13;101122.31;5017267;28;20054;-74
2022/10/15 08:38:31;;;;;;;13.13;11.73;;;;;;;21.86;54.15;101126.69;5014782;28;20050;-75
2022/10/15 08:40:59;;;;;;;18.95;14.27;;;;;;;21.87;54.09;101130.22;5027159;28;20086;-75
2022/10/15 08:43:41;;;;;;;15.18;12.63;;;;;;;21.88;54.27;101131.97;5037166;28;20046;-75
2022/10/15 08:46:21;;;;;;;16.20;13.18;;;;;;;21.89;54.23;101139.91;5021497;28;20058;-76
2022/10/15 08:48:58;;;;;;;19.77;13.85;;;;;;;21.90;54.22;101146.97;4998693;28;20064;-76
2022/10/15 08:51:51;;;;;;;19.23;13.05;;;;;;;21.92;54.35;101144.16;5000143;28;20041;-80
2022/10/15 08:54:19;;;;;;;18.20;12.38;;;;;;;21.93;54.29;101140.47;5015790;28;20052;-76
2022/10/15 08:56:52;;;;;;;15.77;10.93;;;;;;;21.91;54.53;101137.03;5014769;28;20050;-75
2022/10/15 08:59:22;;;;;;;18.08;12.27;;;;;;;21.93;54.43;101135.94;5014722;28;20054;-76
2022/10/15 09:02:14;;;;;;;20.42;16.17;;;;;;;21.93;54.12;101146.69;5015280;28;20045;-77
2022/10/15 09:04:51;;;;;;;22.85;18.33;;;;;;;21.91;53.63;101145.13;5016635;28;20053;-76
2022/10/15 09:07:22;;;;;;;22.50;16.17;;;;;;;21.91;54.16;101140.59;5014991;28;20049;-77
2022/10/15 09:09:57;;;;;;;16.20;14.10;;;;;;;21.91;54.33;101143.28;5016452;28;20052;-77
2022/10/15 09:12:42;;;;;;;15.77;11.50;;;;;;;21.92;54.47;101141.47;5013982;28;20041;-76
2022/10/15 09:15:14;;;;;;;17.10;11.43;;;;;;;21.92;54.70;101150.41;5015774;28;20419;-76
2022/10/15 09:17:45;;;;;;;15.10;12.82;;;;;;;21.93;54.80;101151.25;5015585;28;20057;-78
2022/10/15 09:20:23;;;;;;;20.17;14.50;;;;;;;21.94;54.77;101158.34;5016177;28;20473;-78
2022/10/15 09:22:53;;;;;;;19.52;13.88;;;;;;;21.94;54.68;101158.34;5014419;28;20046;-77
2022/10/15 09:25:22;;;;;;;15.98;12.65;;;;;;;21.94;54.73;101152.94;5015694;28;20069;-77
2022/10/15 09:27:55;;;;;;;25.20;14.45;;;;;;;21.94;54.66;101148.41;4994344;28;20061;-77
2022/10/15 09:30:37;;;;;;;17.40;13.68;;;;;;;21.95;54.73;101155.47;4995514;28;20066;-78
2022/10/15 09:33:17;;;;;;;20.70;14.90;;;;;;;21.96;54.72;101149.13;4995201;28;20045;-77
2022/10/15 09:36:13;;;;;;;17.98;15.48;;;;;;;21.96;54.49;101150.97;4996088;28;20284;-76
2022/10/15 09:39:04;;;;;;;23.33;16.45;;;;;;;21.97;54.36;101152.66;4998680;28;20041;-76
2022/10/15 09:41:32;;;;;;;21.23;14.73;;;;;;;21.96;54.39;101138.34;5015064;28;20041;-76
2022/10/15 09:44:01;;;;;;;21.75;14.18;;;;;;;21.97;54.46;101131.09;5014637;28;20057;-76
2022/10/15 09:46:43;;;;;;;18.63;15.52;;;;;;;21.97;54.18;101123.88;5014862;28;20053;-77
2022/10/15 09:49:18;;;;;;;17.55;14.73;;;;;;;21.98;54.27;101130.09;5014879;28;20056;-77
2022/10/15 09:52:02;;;;;;;20.25;14.50;;;;;;;21.98;54.35;101133.66;5014534;28;20049;-76
2022/10/15 09:54:55;;;;;;;20.60;14.57;;;;;;;22.00;54.31;101133.53;5014328;28;20053;-76
2022/10/15 09:57:23;;;;;;;21.98;15.65;;;;;;;22.01;54.44;101137.91;5014454;28;20486;-76
2022/10/15 09:59:57;;;;;;;17.27;14.15;;;;;;;22.01;54.46;101137.91;4994640;28;20061;-76
2022/10/15 10:02:25;;;;;;;22.15;14.98;;;;;;;22.02;54.64;101150.41;4994761;28;20039;-78
2022/10/15 10:04:53;;;;;;;21.42;15.10;;;;;;;22.01;54.66;101140.59;4995170;28;20050;-78
2022/10/15 10:07:27;;;;;;;19.10;13.90;;;;;;;22.08;54.56;101149.84;4995077;28;20050;-77
2022/10/15 10:09:59;;;;;;;19.33;13.75;;;;;;;22.12;54.59;101143.16;4994938;28;20050;-76
2022/10/15 10:12:31;;;;;;;16.27;13.23;;;;;;;22.15;54.70;101140.19;5001185;28;20038;-78
2022/10/15 10:15:21;;;;;;;18.55;13.98;;;;;;;22.17;54.58;101148.16;5014313;28;20490;-77
2022/10/15 10:17:55;;;;;;;20.50;13.90;;;;;;;22.16;54.79;101150.00;5015124;28;20053;-80
2022/10/15 10:20:29;;;;;;;18.17;12.25;;;;;;;22.16;54.72;101147.31;5015391;28;20413;-79
2022/10/15 10:22:59;;;;;;;23.05;14.90;;;;;;;22.15;54.61;101148.28;5012603;28;20046;-78
2022/10/15 10:25:43;;;;;;;14.40;11.90;;;;;;;22.15;54.60;101147.44;5015345;28;20045;-79
2022/10/15 10:28:10;;;;;;;17.63;13.80;;;;;;;22.15;54.62;101145.59;5012346;28;20065;-74
2022/10/15 10:31:02;;;;;;;24.48;14.52;;;;;;;22.15;54.37;101147.44;5013980;28;20072;-76
2022/10/15 10:33:34;;;;;;;18.50;14.48;;;;;;;22.13;54.53;101144.91;5013892;28;20378;-75
2022/10/15 10:36:03;;;;;;;22.92;13.75;;;;;;;22.14;54.50;101151.97;5014373;28;20052;-80
2022/10/15 10:38:34;;;;;;;19.13;14.02;;;;;;;22.14;54.52;101149.28;5012769;28;20042;-80
2022/10/15 10:41:08;;;;;;;18.65;14.45;;;;;;;22.14;54.46;101148.44;5019548;28;20049;-81
2022/10/15 10:43:50;;;;;;;18.35;12.85;;;;;;;22.13;54.57;101147.59;5034764;28;20477;-80
2022/10/15 10:46:21;;;;;;;17.37;12.67;;;;;;;22.12;54.61;101147.69;5033423;28;20053;-79
2022/10/15 10:48:51;;;;;;;18.10;12.98;;;;;;;22.12;54.52;101143.16;5033903;28;20045;-80
2022/10/15 10:51:22;;;;;;;14.45;12.45;;;;;;;22.12;54.65;101137.78;5016729;28;20050;-80
2022/10/15 10:54:05;;;;;;;18.58;14.38;;;;;;;22.12;54.39;101136.91;5012233;28;20509;-80
2022/10/15 10:56:43;;;;;;;16.40;13.38;;;;;;;22.12;54.64;101136.91;5011966;28;20065;-80
2022/10/15 10:59:22;;;;;;;16.10;12.55;;;;;;;22.12;54.63;101137.78;5013701;28;20418;-80
2022/10/15 11:01:50;;;;;;;18.17;12.65;;;;;;;22.13;54.67;101127.88;5013792;28;20401;-79
2022/10/15 11:04:31;;;;;;;16.08;12.65;;;;;;;22.13;54.38;101125.16;5013183;28;20402;-79
2022/10/15 11:07:05;;;;;;;22.17;16.65;;;;;;;22.12;54.74;101118.91;5014355;28;20045;-82
2022/10/15 11:09:45;;;;;;;20.20;14.80;;;;;;;22.12;54.83;101113.50;5012647;28;20062;-79
2022/10/15 11:12:34;;;;;;;20.15;15.05;;;;;;;22.11;54.63;101117.19;5009614;28;20046;-79
2022/10/15 11:15:13;;;;;;;17.08;14.25;;;;;;;22.12;54.49;101097.34;5009420;28;20067;-79
2022/10/15 11:29:14;;;;;;;24.67;20.73;;;;;;;22.15;54.61;101091.66;5152090;27;20378;-81
2022/10/15 11:32:13;;;;;;;24.38;18.58;;;;;;;22.16;54.41;101096.09;5153368;27;20512;-81
2022/10/15 11:34:49;;;;;;;26.55;21.27;;;;;;;22.16;52.89;101088.00;5134143;27;20051;-79
2022/10/15 11:37:33;;;;;;;28.13;20.77;;;;;;;22.18;53.38;101093.22;5152785;27;20042;-80
2022/10/15 11:40:35;;;;;;;28.15;21.55;;;;;;;22.17;54.25;101083.44;5152188;27;20042;-78
2022/10/15 11:43:13;;;;;;;29.65;21.98;;;;;;;22.16;53.38;101084.41;5153537;27;20046;-80
2022/10/15 11:46:16;;;;;;;27.48;20.17;;;;;;;22.15;52.99;101086.25;5137255;27;20405;-78
2022/10/15 11:48:57;;;;;;;23.98;17.95;;;;;;;22.14;52.65;101084.56;5065584;28;20065;-78
2022/10/15 11:51:40;;;;;;;21.58;18.48;;;;;;;22.13;52.56;101088.28;5051423;28;20056;-78